sensor_id;sensor_type;location;lat;lon;timestamp;P1;durP1;ratioP1;P2;durP2;ratioP2
7205;SDS011;3644;53.480;10.004;2023-07-31T00:00:31;6.53;;;1.93;;
7205;SDS011;3644;53.480;10.004;2023-07-31T00:02:56;10.80;;;2.30;;
7205;SDS011;3644;53.480;10.004;2023-07-31T00:05:21;5.20;;;2.73;;
7205;SDS011;3644;53.480;10.004;2023-07-31T00:07:47;13.00;;;2.10;;
7205;SDS011;3644;53.480;10.004;2023-07-31T00:10:12;7.00;;;2.10;;
7205;SDS011;3644;53.480;10.004;2023-07-31T00:12:38;7.83;;;2.70;;
7205;SDS011;3644;53.480;10.004;2023-07-31T00:15:06;5.50;;;2.00;;
7205;SDS011;3644;53.480;10.004;2023-07-31T00:17:32;3.00;;;2.13;;
7205;SDS011;3644;53.480;10.004;2023-07-31T00:19:58;12.23;;;2.60;;
7205;SDS011;3644;53.480;10.004;2023-07-31T00:22:23;8.77;;;2.23;;
7205;SDS011;3644;53.480;10.004;2023-07-31T00:24:49;3.20;;;1.73;;
7205;SDS011;3644;53.480;10.004;2023-07-31T00:27:14;5.50;;;2.17;;
7205;SDS011;3644;53.480;10.004;2023-07-31T00:29:40;11.30;;;1.80;;
7205;SDS011;3644;53.480;10.004;2023-07-31T00:32:06;2.73;;;2.00;;
7205;SDS011;3644;53.480;10.004;2023-07-31T00:34:32;5.20;;;2.40;;
7205;SDS011;3644;53.480;10.004;2023-07-31T00:36:57;3.70;;;1.80;;
7205;SDS011;3644;53.480;10.004;2023-07-31T00:39:23;4.50;;;1.70;;
7205;SDS011;3644;53.480;10.004;2023-07-31T00:41:48;3.50;;;2.00;;
7205;SDS011;3644;53.480;10.004;2023-07-31T00:44:14;3.40;;;2.00;;
7205;SDS011;3644;53.480;10.004;2023-07-31T00:46:39;2.20;;;1.70;;
7205;SDS011;3644;53.480;10.004;2023-07-31T00:49:05;7.03;;;1.90;;
7205;SDS011;3644;53.480;10.004;2023-07-31T00:51:31;4.97;;;1.67;;
7205;SDS011;3644;53.480;10.004;2023-07-31T00:53:56;9.30;;;2.60;;
7205;SDS011;3644;53.480;10.004;2023-07-31T00:56:23;6.80;;;2.47;;
7205;SDS011;3644;53.480;10.004;2023-07-31T00:58:50;6.40;;;2.00;;
7205;SDS011;3644;53.480;10.004;2023-07-31T01:01:15;3.23;;;2.30;;
7205;SDS011;3644;53.480;10.004;2023-07-31T01:03:41;10.60;;;2.17;;
7205;SDS011;3644;53.480;10.004;2023-07-31T01:09:04;4.50;;;2.20;;
7205;SDS011;3644;53.480;10.004;2023-07-31T01:11:43;5.80;;;2.30;;
7205;SDS011;3644;53.480;10.004;2023-07-31T01:14:18;9.03;;;2.37;;
7205;SDS011;3644;53.480;10.004;2023-07-31T01:16:43;9.40;;;1.93;;
7205;SDS011;3644;53.480;10.004;2023-07-31T01:19:09;6.83;;;2.07;;
7205;SDS011;3644;53.480;10.004;2023-07-31T01:26:39;5.13;;;2.70;;
7205;SDS011;3644;53.480;10.004;2023-07-31T01:29:07;3.37;;;2.47;;
7205;SDS011;3644;53.480;10.004;2023-07-31T01:31:42;3.53;;;2.20;;
7205;SDS011;3644;53.480;10.004;2023-07-31T01:34:10;5.83;;;2.83;;
7205;SDS011;3644;53.480;10.004;2023-07-31T01:36:37;7.30;;;2.07;;
7205;SDS011;3644;53.480;10.004;2023-07-31T01:39:03;5.60;;;2.33;;
7205;SDS011;3644;53.480;10.004;2023-07-31T01:41:29;9.33;;;3.50;;
7205;SDS011;3644;53.480;10.004;2023-07-31T01:43:54;7.67;;;2.37;;
7205;SDS011;3644;53.480;10.004;2023-07-31T01:46:20;5.10;;;2.17;;
7205;SDS011;3644;53.480;10.004;2023-07-31T01:48:45;11.90;;;2.50;;
7205;SDS011;3644;53.480;10.004;2023-07-31T01:51:11;8.30;;;2.77;;
7205;SDS011;3644;53.480;10.004;2023-07-31T01:53:36;6.43;;;2.40;;
7205;SDS011;3644;53.480;10.004;2023-07-31T01:56:02;8.63;;;2.50;;
7205;SDS011;3644;53.480;10.004;2023-07-31T01:58:27;11.43;;;2.53;;
7205;SDS011;3644;53.480;10.004;2023-07-31T02:00:53;6.77;;;2.40;;
7205;SDS011;3644;53.480;10.004;2023-07-31T02:03:18;12.47;;;2.47;;
7205;SDS011;3644;53.480;10.004;2023-07-31T02:05:47;3.97;;;2.57;;
7205;SDS011;3644;53.480;10.004;2023-07-31T02:08:13;6.03;;;2.23;;
7205;SDS011;3644;53.480;10.004;2023-07-31T02:10:39;13.87;;;3.03;;
7205;SDS011;3644;53.480;10.004;2023-07-31T02:13:05;6.07;;;2.30;;
7205;SDS011;3644;53.480;10.004;2023-07-31T02:15:30;5.80;;;2.60;;
7205;SDS011;3644;53.480;10.004;2023-07-31T02:17:56;7.10;;;2.80;;
7205;SDS011;3644;53.480;10.004;2023-07-31T02:20:22;6.27;;;2.33;;
7205;SDS011;3644;53.480;10.004;2023-07-31T02:22:47;7.03;;;2.87;;
7205;SDS011;3644;53.480;10.004;2023-07-31T02:25:13;13.43;;;3.07;;
7205;SDS011;3644;53.480;10.004;2023-07-31T02:27:38;8.00;;;2.50;;
7205;SDS011;3644;53.480;10.004;2023-07-31T02:30:04;3.90;;;2.10;;
7205;SDS011;3644;53.480;10.004;2023-07-31T02:32:30;4.03;;;2.23;;
7205;SDS011;3644;53.480;10.004;2023-07-31T02:34:55;9.53;;;2.50;;
7205;SDS011;3644;53.480;10.004;2023-07-31T02:37:21;3.53;;;2.30;;
7205;SDS011;3644;53.480;10.004;2023-07-31T02:39:46;10.33;;;2.63;;
7205;SDS011;3644;53.480;10.004;2023-07-31T02:42:12;3.30;;;2.20;;
7205;SDS011;3644;53.480;10.004;2023-07-31T02:44:38;10.47;;;2.73;;
7205;SDS011;3644;53.480;10.004;2023-07-31T02:47:04;5.13;;;2.33;;
7205;SDS011;3644;53.480;10.004;2023-07-31T02:49:29;2.50;;;2.23;;
7205;SDS011;3644;53.480;10.004;2023-07-31T02:51:55;6.50;;;2.23;;
7205;SDS011;3644;53.480;10.004;2023-07-31T02:54:20;6.13;;;2.77;;
7205;SDS011;3644;53.480;10.004;2023-07-31T02:56:46;8.23;;;3.63;;
7205;SDS011;3644;53.480;10.004;2023-07-31T02:59:12;2.77;;;2.47;;
7205;SDS011;3644;53.480;10.004;2023-07-31T03:01:38;8.73;;;2.27;;
7205;SDS011;3644;53.480;10.004;2023-07-31T03:04:03;4.60;;;2.50;;
7205;SDS011;3644;53.480;10.004;2023-07-31T03:06:29;11.90;;;2.80;;
7205;SDS011;3644;53.480;10.004;2023-07-31T03:08:54;7.57;;;2.93;;
7205;SDS011;3644;53.480;10.004;2023-07-31T03:11:20;10.03;;;2.83;;
7205;SDS011;3644;53.480;10.004;2023-07-31T03:13:46;12.33;;;4.37;;
7205;SDS011;3644;53.480;10.004;2023-07-31T03:16:11;7.83;;;2.70;;
7205;SDS011;3644;53.480;10.004;2023-07-31T03:18:36;10.47;;;2.60;;
7205;SDS011;3644;53.480;10.004;2023-07-31T03:21:02;7.73;;;2.80;;
7205;SDS011;3644;53.480;10.004;2023-07-31T03:23:28;3.83;;;2.70;;
7205;SDS011;3644;53.480;10.004;2023-07-31T03:25:58;4.03;;;3.37;;
7205;SDS011;3644;53.480;10.004;2023-07-31T03:28:28;7.03;;;2.47;;
7205;SDS011;3644;53.480;10.004;2023-07-31T03:30:54;5.87;;;2.83;;
7205;SDS011;3644;53.480;10.004;2023-07-31T03:33:20;7.63;;;3.00;;
7205;SDS011;3644;53.480;10.004;2023-07-31T03:35:46;3.13;;;2.53;;
7205;SDS011;3644;53.480;10.004;2023-07-31T03:38:11;3.60;;;2.60;;
7205;SDS011;3644;53.480;10.004;2023-07-31T03:40:37;5.57;;;2.93;;
7205;SDS011;3644;53.480;10.004;2023-07-31T03:43:02;14.00;;;3.50;;
7205;SDS011;3644;53.480;10.004;2023-07-31T03:45:28;7.07;;;3.03;;
7205;SDS011;3644;53.480;10.004;2023-07-31T03:47:53;4.10;;;2.60;;
7205;SDS011;3644;53.480;10.004;2023-07-31T03:50:19;6.63;;;2.93;;
7205;SDS011;3644;53.480;10.004;2023-07-31T03:52:45;3.83;;;2.77;;
7205;SDS011;3644;53.480;10.004;2023-07-31T03:55:11;3.60;;;2.90;;
7205;SDS011;3644;53.480;10.004;2023-07-31T03:57:36;3.27;;;2.87;;
7205;SDS011;3644;53.480;10.004;2023-07-31T04:00:02;10.27;;;3.10;;
7205;SDS011;3644;53.480;10.004;2023-07-31T04:02:28;3.60;;;3.20;;
7205;SDS011;3644;53.480;10.004;2023-07-31T04:04:54;5.20;;;2.93;;
7205;SDS011;3644;53.480;10.004;2023-07-31T04:07:19;8.87;;;3.13;;
7205;SDS011;3644;53.480;10.004;2023-07-31T04:09:45;5.97;;;2.50;;
7205;SDS011;3644;53.480;10.004;2023-07-31T04:12:10;8.33;;;3.23;;
7205;SDS011;3644;53.480;10.004;2023-07-31T04:14:36;3.63;;;3.00;;
7205;SDS011;3644;53.480;10.004;2023-07-31T04:17:02;3.27;;;2.97;;
7205;SDS011;3644;53.480;10.004;2023-07-31T04:19:27;2.57;;;2.37;;
7205;SDS011;3644;53.480;10.004;2023-07-31T04:21:53;5.77;;;2.90;;
7205;SDS011;3644;53.480;10.004;2023-07-31T04:24:18;3.53;;;2.20;;
7205;SDS011;3644;53.480;10.004;2023-07-31T04:26:49;2.60;;;2.40;;
7205;SDS011;3644;53.480;10.004;2023-07-31T04:29:15;3.20;;;2.33;;
7205;SDS011;3644;53.480;10.004;2023-07-31T04:31:41;2.33;;;2.13;;
7205;SDS011;3644;53.480;10.004;2023-07-31T04:34:06;9.27;;;2.50;;
7205;SDS011;3644;53.480;10.004;2023-07-31T04:36:32;6.60;;;2.63;;
7205;SDS011;3644;53.480;10.004;2023-07-31T04:38:59;2.90;;;2.60;;
7205;SDS011;3644;53.480;10.004;2023-07-31T04:41:24;3.00;;;2.70;;
7205;SDS011;3644;53.480;10.004;2023-07-31T04:43:50;7.37;;;2.27;;
7205;SDS011;3644;53.480;10.004;2023-07-31T04:46:15;2.53;;;2.37;;
7205;SDS011;3644;53.480;10.004;2023-07-31T04:48:41;3.20;;;2.17;;
7205;SDS011;3644;53.480;10.004;2023-07-31T04:51:07;4.63;;;2.40;;
7205;SDS011;3644;53.480;10.004;2023-07-31T04:53:32;5.00;;;2.60;;
7205;SDS011;3644;53.480;10.004;2023-07-31T04:55:58;2.70;;;2.50;;
7205;SDS011;3644;53.480;10.004;2023-07-31T04:58:23;2.33;;;2.00;;
7205;SDS011;3644;53.480;10.004;2023-07-31T05:00:49;7.13;;;2.80;;
7205;SDS011;3644;53.480;10.004;2023-07-31T05:03:14;4.40;;;2.80;;
7205;SDS011;3644;53.480;10.004;2023-07-31T05:05:40;2.43;;;2.33;;
7205;SDS011;3644;53.480;10.004;2023-07-31T05:08:05;2.63;;;2.17;;
7205;SDS011;3644;53.480;10.004;2023-07-31T05:10:31;5.23;;;3.30;;
7205;SDS011;3644;53.480;10.004;2023-07-31T05:12:56;3.13;;;2.50;;
7205;SDS011;3644;53.480;10.004;2023-07-31T05:15:22;3.67;;;2.50;;
7205;SDS011;3644;53.480;10.004;2023-07-31T05:17:48;3.30;;;2.73;;
7205;SDS011;3644;53.480;10.004;2023-07-31T05:20:13;2.90;;;2.47;;
7205;SDS011;3644;53.480;10.004;2023-07-31T05:22:39;3.23;;;2.60;;
7205;SDS011;3644;53.480;10.004;2023-07-31T05:25:05;5.07;;;2.20;;
7205;SDS011;3644;53.480;10.004;2023-07-31T05:27:32;2.30;;;2.20;;
7205;SDS011;3644;53.480;10.004;2023-07-31T05:29:57;2.33;;;2.20;;
7205;SDS011;3644;53.480;10.004;2023-07-31T05:32:23;2.57;;;2.37;;
7205;SDS011;3644;53.480;10.004;2023-07-31T05:34:50;2.70;;;2.50;;
7205;SDS011;3644;53.480;10.004;2023-07-31T05:37:17;3.37;;;2.97;;
7205;SDS011;3644;53.480;10.004;2023-07-31T05:39:43;3.43;;;2.20;;
7205;SDS011;3644;53.480;10.004;2023-07-31T05:42:08;2.17;;;2.07;;
7205;SDS011;3644;53.480;10.004;2023-07-31T05:44:34;3.10;;;2.83;;
7205;SDS011;3644;53.480;10.004;2023-07-31T05:46:59;3.30;;;3.00;;
7205;SDS011;3644;53.480;10.004;2023-07-31T05:49:25;3.30;;;2.90;;
7205;SDS011;3644;53.480;10.004;2023-07-31T05:51:50;4.47;;;2.80;;
7205;SDS011;3644;53.480;10.004;2023-07-31T05:54:16;2.50;;;2.40;;
7205;SDS011;3644;53.480;10.004;2023-07-31T05:56:41;3.40;;;2.80;;
7205;SDS011;3644;53.480;10.004;2023-07-31T05:59:08;2.20;;;2.00;;
7205;SDS011;3644;53.480;10.004;2023-07-31T06:01:34;2.80;;;2.60;;
7205;SDS011;3644;53.480;10.004;2023-07-31T06:04:00;2.87;;;2.63;;
7205;SDS011;3644;53.480;10.004;2023-07-31T06:06:26;4.63;;;2.63;;
7205;SDS011;3644;53.480;10.004;2023-07-31T06:08:52;2.90;;;2.60;;
7205;SDS011;3644;53.480;10.004;2023-07-31T06:11:18;2.63;;;2.40;;
7205;SDS011;3644;53.480;10.004;2023-07-31T06:13:45;3.13;;;2.40;;
7205;SDS011;3644;53.480;10.004;2023-07-31T06:16:11;2.63;;;2.43;;
7205;SDS011;3644;53.480;10.004;2023-07-31T06:18:37;2.50;;;2.30;;
7205;SDS011;3644;53.480;10.004;2023-07-31T06:21:02;3.27;;;2.80;;
7205;SDS011;3644;53.480;10.004;2023-07-31T06:23:28;6.00;;;3.20;;
7205;SDS011;3644;53.480;10.004;2023-07-31T06:25:54;2.70;;;2.50;;
7205;SDS011;3644;53.480;10.004;2023-07-31T06:28:19;2.50;;;2.30;;
7205;SDS011;3644;53.480;10.004;2023-07-31T06:30:45;4.33;;;2.43;;
7205;SDS011;3644;53.480;10.004;2023-07-31T06:33:10;3.00;;;2.80;;
7205;SDS011;3644;53.480;10.004;2023-07-31T06:35:36;3.43;;;2.33;;
7205;SDS011;3644;53.480;10.004;2023-07-31T06:38:01;2.60;;;2.40;;
7205;SDS011;3644;53.480;10.004;2023-07-31T06:40:27;2.80;;;1.97;;
7205;SDS011;3644;53.480;10.004;2023-07-31T06:42:53;2.27;;;2.07;;
7205;SDS011;3644;53.480;10.004;2023-07-31T06:45:19;2.33;;;2.17;;
7205;SDS011;3644;53.480;10.004;2023-07-31T06:47:44;2.77;;;2.57;;
7205;SDS011;3644;53.480;10.004;2023-07-31T06:50:10;2.50;;;2.30;;
7205;SDS011;3644;53.480;10.004;2023-07-31T06:52:35;6.87;;;2.27;;
7205;SDS011;3644;53.480;10.004;2023-07-31T06:55:16;3.03;;;2.73;;
7205;SDS011;3644;53.480;10.004;2023-07-31T06:57:46;3.67;;;2.47;;
7205;SDS011;3644;53.480;10.004;2023-07-31T07:00:13;2.90;;;2.20;;
7205;SDS011;3644;53.480;10.004;2023-07-31T07:02:38;2.37;;;1.93;;
7205;SDS011;3644;53.480;10.004;2023-07-31T07:05:04;3.33;;;1.90;;
7205;SDS011;3644;53.480;10.004;2023-07-31T07:07:31;4.37;;;1.90;;
7205;SDS011;3644;53.480;10.004;2023-07-31T07:09:57;1.67;;;1.57;;
7205;SDS011;3644;53.480;10.004;2023-07-31T07:12:24;2.37;;;1.37;;
7205;SDS011;3644;53.480;10.004;2023-07-31T07:14:50;1.50;;;1.40;;
7205;SDS011;3644;53.480;10.004;2023-07-31T07:17:17;1.70;;;1.53;;
7205;SDS011;3644;53.480;10.004;2023-07-31T07:19:47;1.60;;;1.50;;
7205;SDS011;3644;53.480;10.004;2023-07-31T07:22:13;1.37;;;1.37;;
7205;SDS011;3644;53.480;10.004;2023-07-31T07:24:38;2.90;;;1.50;;
7205;SDS011;3644;53.480;10.004;2023-07-31T07:27:04;4.70;;;1.80;;
7205;SDS011;3644;53.480;10.004;2023-07-31T07:29:30;1.70;;;1.30;;
7205;SDS011;3644;53.480;10.004;2023-07-31T07:31:55;1.40;;;1.30;;
7205;SDS011;3644;53.480;10.004;2023-07-31T07:34:25;1.57;;;1.47;;
7205;SDS011;3644;53.480;10.004;2023-07-31T07:36:51;3.40;;;1.57;;
7205;SDS011;3644;53.480;10.004;2023-07-31T07:39:17;1.33;;;1.30;;
7205;SDS011;3644;53.480;10.004;2023-07-31T07:41:42;1.50;;;1.40;;
7205;SDS011;3644;53.480;10.004;2023-07-31T07:44:08;1.47;;;1.37;;
7205;SDS011;3644;53.480;10.004;2023-07-31T07:46:33;1.97;;;1.60;;
7205;SDS011;3644;53.480;10.004;2023-07-31T07:48:59;1.30;;;1.30;;
7205;SDS011;3644;53.480;10.004;2023-07-31T07:51:24;2.03;;;1.60;;
7205;SDS011;3644;53.480;10.004;2023-07-31T07:53:50;1.40;;;1.30;;
7205;SDS011;3644;53.480;10.004;2023-07-31T07:56:15;1.63;;;1.37;;
7205;SDS011;3644;53.480;10.004;2023-07-31T07:58:41;1.63;;;1.30;;
7205;SDS011;3644;53.480;10.004;2023-07-31T08:01:07;2.30;;;1.37;;
7205;SDS011;3644;53.480;10.004;2023-07-31T08:03:32;1.40;;;1.30;;
7205;SDS011;3644;53.480;10.004;2023-07-31T08:05:58;1.70;;;1.60;;
7205;SDS011;3644;53.480;10.004;2023-07-31T08:08:24;1.57;;;1.20;;
7205;SDS011;3644;53.480;10.004;2023-07-31T08:10:50;1.40;;;1.30;;
7205;SDS011;3644;53.480;10.004;2023-07-31T08:13:15;5.60;;;1.30;;
7205;SDS011;3644;53.480;10.004;2023-07-31T08:15:41;2.37;;;1.30;;
7205;SDS011;3644;53.480;10.004;2023-07-31T08:18:07;1.33;;;1.30;;
7205;SDS011;3644;53.480;10.004;2023-07-31T08:20:32;1.23;;;1.00;;
7205;SDS011;3644;53.480;10.004;2023-07-31T08:22:58;1.40;;;1.30;;
7205;SDS011;3644;53.480;10.004;2023-07-31T08:25:24;2.20;;;1.67;;
7205;SDS011;3644;53.480;10.004;2023-07-31T08:27:50;1.43;;;1.33;;
7205;SDS011;3644;53.480;10.004;2023-07-31T08:30:17;1.47;;;1.10;;
7205;SDS011;3644;53.480;10.004;2023-07-31T08:32:44;1.10;;;1.00;;
7205;SDS011;3644;53.480;10.004;2023-07-31T08:35:09;1.13;;;1.10;;
7205;SDS011;3644;53.480;10.004;2023-07-31T08:37:35;0.70;;;0.70;;
7205;SDS011;3644;53.480;10.004;2023-07-31T08:40:01;0.80;;;0.80;;
7205;SDS011;3644;53.480;10.004;2023-07-31T08:42:27;1.67;;;1.10;;
7205;SDS011;3644;53.480;10.004;2023-07-31T08:44:52;0.90;;;0.90;;
7205;SDS011;3644;53.480;10.004;2023-07-31T08:47:20;0.70;;;0.70;;
7205;SDS011;3644;53.480;10.004;2023-07-31T08:49:47;1.13;;;1.03;;
7205;SDS011;3644;53.480;10.004;2023-07-31T08:52:13;0.90;;;0.90;;
7205;SDS011;3644;53.480;10.004;2023-07-31T08:54:39;0.77;;;0.77;;
7205;SDS011;3644;53.480;10.004;2023-07-31T08:57:05;0.80;;;0.80;;
7205;SDS011;3644;53.480;10.004;2023-07-31T08:59:31;0.90;;;0.90;;
7205;SDS011;3644;53.480;10.004;2023-07-31T09:02:03;1.17;;;1.00;;
7205;SDS011;3644;53.480;10.004;2023-07-31T09:04:31;1.00;;;0.90;;
7205;SDS011;3644;53.480;10.004;2023-07-31T09:06:59;0.70;;;0.70;;
7205;SDS011;3644;53.480;10.004;2023-07-31T09:09:26;1.27;;;1.03;;
7205;SDS011;3644;53.480;10.004;2023-07-31T09:11:51;0.80;;;0.80;;
7205;SDS011;3644;53.480;10.004;2023-07-31T09:14:18;1.60;;;0.80;;
7205;SDS011;3644;53.480;10.004;2023-07-31T09:16:51;3.80;;;0.80;;
7205;SDS011;3644;53.480;10.004;2023-07-31T09:19:27;0.70;;;0.70;;
7205;SDS011;3644;53.480;10.004;2023-07-31T09:22:02;0.80;;;0.80;;
7205;SDS011;3644;53.480;10.004;2023-07-31T09:24:28;1.13;;;1.03;;
7205;SDS011;3644;53.480;10.004;2023-07-31T09:26:56;1.00;;;0.90;;
7205;SDS011;3644;53.480;10.004;2023-07-31T09:29:23;0.80;;;0.80;;
7205;SDS011;3644;53.480;10.004;2023-07-31T09:31:50;0.80;;;0.80;;
7205;SDS011;3644;53.480;10.004;2023-07-31T09:34:15;0.90;;;0.90;;
7205;SDS011;3644;53.480;10.004;2023-07-31T09:39:11;0.77;;;0.77;;
7205;SDS011;3644;53.480;10.004;2023-07-31T09:41:41;0.70;;;0.70;;
7205;SDS011;3644;53.480;10.004;2023-07-31T09:44:08;0.90;;;0.90;;
7205;SDS011;3644;53.480;10.004;2023-07-31T09:46:37;0.70;;;0.70;;
7205;SDS011;3644;53.480;10.004;2023-07-31T09:49:06;2.23;;;1.20;;
7205;SDS011;3644;53.480;10.004;2023-07-31T09:51:39;2.30;;;0.90;;
7205;SDS011;3644;53.480;10.004;2023-07-31T09:54:12;1.53;;;1.27;;
7205;SDS011;3644;53.480;10.004;2023-07-31T09:56:46;2.00;;;1.23;;
7205;SDS011;3644;53.480;10.004;2023-07-31T09:59:17;1.10;;;1.00;;
7205;SDS011;3644;53.480;10.004;2023-07-31T10:01:44;0.80;;;0.80;;
7205;SDS011;3644;53.480;10.004;2023-07-31T10:04:11;1.30;;;0.90;;
7205;SDS011;3644;53.480;10.004;2023-07-31T10:06:38;0.77;;;0.77;;
7205;SDS011;3644;53.480;10.004;2023-07-31T10:09:05;2.50;;;1.90;;
7205;SDS011;3644;53.480;10.004;2023-07-31T10:11:42;1.00;;;0.90;;
7205;SDS011;3644;53.480;10.004;2023-07-31T10:14:15;9.67;;;1.43;;
7205;SDS011;3644;53.480;10.004;2023-07-31T10:16:45;6.00;;;1.03;;
7205;SDS011;3644;53.480;10.004;2023-07-31T10:19:11;1.07;;;0.97;;
7205;SDS011;3644;53.480;10.004;2023-07-31T10:21:37;3.67;;;1.30;;
7205;SDS011;3644;53.480;10.004;2023-07-31T10:24:03;1.70;;;1.60;;
7205;SDS011;3644;53.480;10.004;2023-07-31T10:26:29;4.40;;;3.13;;
7205;SDS011;3644;53.480;10.004;2023-07-31T10:28:57;4.97;;;4.10;;
7205;SDS011;3644;53.480;10.004;2023-07-31T10:31:23;7.80;;;5.20;;
7205;SDS011;3644;53.480;10.004;2023-07-31T10:33:50;22.73;;;6.13;;
7205;SDS011;3644;53.480;10.004;2023-07-31T10:36:20;12.70;;;6.27;;
7205;SDS011;3644;53.480;10.004;2023-07-31T10:38:48;16.47;;;6.20;;
7205;SDS011;3644;53.480;10.004;2023-07-31T10:41:14;14.30;;;6.07;;
7205;SDS011;3644;53.480;10.004;2023-07-31T10:43:39;10.40;;;6.00;;
7205;SDS011;3644;53.480;10.004;2023-07-31T10:46:09;9.83;;;6.73;;
7205;SDS011;3644;53.480;10.004;2023-07-31T10:48:38;17.93;;;7.47;;
7205;SDS011;3644;53.480;10.004;2023-07-31T10:51:07;9.90;;;6.20;;
7205;SDS011;3644;53.480;10.004;2023-07-31T10:53:37;11.30;;;6.10;;
7205;SDS011;3644;53.480;10.004;2023-07-31T10:56:06;20.07;;;7.53;;
7205;SDS011;3644;53.480;10.004;2023-07-31T10:58:33;17.13;;;7.10;;
7205;SDS011;3644;53.480;10.004;2023-07-31T11:01:00;11.87;;;7.37;;
7205;SDS011;3644;53.480;10.004;2023-07-31T11:06:13;12.53;;;5.47;;
7205;SDS011;3644;53.480;10.004;2023-07-31T11:08:43;13.17;;;5.50;;
7205;SDS011;3644;53.480;10.004;2023-07-31T11:11:11;10.50;;;5.63;;
7205;SDS011;3644;53.480;10.004;2023-07-31T11:16:17;7.47;;;4.10;;
7205;SDS011;3644;53.480;10.004;2023-07-31T11:18:45;6.83;;;3.53;;
7205;SDS011;3644;53.480;10.004;2023-07-31T11:21:13;4.33;;;3.07;;
7205;SDS011;3644;53.480;10.004;2023-07-31T11:23:47;5.23;;;2.83;;
7205;SDS011;3644;53.480;10.004;2023-07-31T11:26:14;9.73;;;4.03;;
7205;SDS011;3644;53.480;10.004;2023-07-31T11:28:40;4.00;;;2.27;;
7205;SDS011;3644;53.480;10.004;2023-07-31T11:31:08;2.30;;;2.07;;
7205;SDS011;3644;53.480;10.004;2023-07-31T11:33:34;3.00;;;2.40;;
7205;SDS011;3644;53.480;10.004;2023-07-31T11:36:00;4.00;;;2.23;;
7205;SDS011;3644;53.480;10.004;2023-07-31T11:40:56;4.43;;;3.30;;
7205;SDS011;3644;53.480;10.004;2023-07-31T11:43:23;3.57;;;2.80;;
7205;SDS011;3644;53.480;10.004;2023-07-31T11:45:53;3.57;;;2.40;;
7205;SDS011;3644;53.480;10.004;2023-07-31T11:48:27;2.43;;;2.00;;
7205;SDS011;3644;53.480;10.004;2023-07-31T11:50:59;3.30;;;2.60;;
7205;SDS011;3644;53.480;10.004;2023-07-31T11:56:13;3.80;;;3.03;;
7205;SDS011;3644;53.480;10.004;2023-07-31T11:58:41;2.40;;;2.20;;
7205;SDS011;3644;53.480;10.004;2023-07-31T12:01:09;4.57;;;1.87;;
7205;SDS011;3644;53.480;10.004;2023-07-31T12:03:35;4.47;;;2.40;;
7205;SDS011;3644;53.480;10.004;2023-07-31T12:06:01;1.70;;;1.60;;
7205;SDS011;3644;53.480;10.004;2023-07-31T12:08:27;4.50;;;2.03;;
7205;SDS011;3644;53.480;10.004;2023-07-31T12:10:53;2.60;;;1.87;;
7205;SDS011;3644;53.480;10.004;2023-07-31T12:13:23;2.20;;;2.00;;
7205;SDS011;3644;53.480;10.004;2023-07-31T12:15:54;2.27;;;1.50;;
7205;SDS011;3644;53.480;10.004;2023-07-31T12:18:28;2.00;;;1.33;;
7205;SDS011;3644;53.480;10.004;2023-07-31T12:20:58;1.87;;;1.17;;
7205;SDS011;3644;53.480;10.004;2023-07-31T12:23:25;1.77;;;1.50;;
7205;SDS011;3644;53.480;10.004;2023-07-31T12:26:00;1.97;;;1.60;;
7205;SDS011;3644;53.480;10.004;2023-07-31T12:31:03;1.50;;;1.40;;
7205;SDS011;3644;53.480;10.004;2023-07-31T12:33:30;2.03;;;1.30;;
7205;SDS011;3644;53.480;10.004;2023-07-31T12:35:57;1.53;;;1.43;;
7205;SDS011;3644;53.480;10.004;2023-07-31T12:38:23;1.73;;;1.63;;
7205;SDS011;3644;53.480;10.004;2023-07-31T12:40:48;4.60;;;1.50;;
7205;SDS011;3644;53.480;10.004;2023-07-31T12:43:14;1.57;;;1.40;;
7205;SDS011;3644;53.480;10.004;2023-07-31T12:45:41;1.20;;;1.10;;
7205;SDS011;3644;53.480;10.004;2023-07-31T12:48:06;1.70;;;1.37;;
7205;SDS011;3644;53.480;10.004;2023-07-31T12:50:32;2.10;;;1.40;;
7205;SDS011;3644;53.480;10.004;2023-07-31T12:52:57;1.10;;;1.00;;
7205;SDS011;3644;53.480;10.004;2023-07-31T12:55:23;1.13;;;1.03;;
7205;SDS011;3644;53.480;10.004;2023-07-31T12:57:49;1.17;;;1.07;;
7205;SDS011;3644;53.480;10.004;2023-07-31T13:00:15;6.73;;;1.30;;
7205;SDS011;3644;53.480;10.004;2023-07-31T13:02:41;1.80;;;1.30;;
7205;SDS011;3644;53.480;10.004;2023-07-31T13:05:06;2.60;;;1.20;;
7205;SDS011;3644;53.480;10.004;2023-07-31T13:07:32;1.10;;;0.93;;
7205;SDS011;3644;53.480;10.004;2023-07-31T13:09:59;1.77;;;1.33;;
7205;SDS011;3644;53.480;10.004;2023-07-31T13:12:24;1.60;;;1.37;;
7205;SDS011;3644;53.480;10.004;2023-07-31T13:14:50;1.00;;;1.00;;
7205;SDS011;3644;53.480;10.004;2023-07-31T13:17:16;0.90;;;0.90;;
7205;SDS011;3644;53.480;10.004;2023-07-31T13:19:42;1.17;;;1.00;;
7205;SDS011;3644;53.480;10.004;2023-07-31T13:22:08;0.97;;;0.97;;
7205;SDS011;3644;53.480;10.004;2023-07-31T13:24:33;0.90;;;0.90;;
7205;SDS011;3644;53.480;10.004;2023-07-31T13:26:59;1.07;;;0.90;;
7205;SDS011;3644;53.480;10.004;2023-07-31T13:29:24;0.90;;;0.90;;
7205;SDS011;3644;53.480;10.004;2023-07-31T13:31:50;3.77;;;1.00;;
7205;SDS011;3644;53.480;10.004;2023-07-31T13:34:17;0.77;;;0.77;;
7205;SDS011;3644;53.480;10.004;2023-07-31T13:36:42;1.13;;;0.90;;
7205;SDS011;3644;53.480;10.004;2023-07-31T13:39:08;2.40;;;0.97;;
7205;SDS011;3644;53.480;10.004;2023-07-31T13:41:33;1.03;;;1.03;;
7205;SDS011;3644;53.480;10.004;2023-07-31T13:43:59;3.83;;;1.30;;
7205;SDS011;3644;53.480;10.004;2023-07-31T13:46:24;0.93;;;0.93;;
7205;SDS011;3644;53.480;10.004;2023-07-31T13:48:50;2.60;;;1.00;;
7205;SDS011;3644;53.480;10.004;2023-07-31T13:51:19;2.70;;;1.00;;
7205;SDS011;3644;53.480;10.004;2023-07-31T13:53:45;0.90;;;0.80;;
7205;SDS011;3644;53.480;10.004;2023-07-31T13:56:10;3.17;;;0.90;;
7205;SDS011;3644;53.480;10.004;2023-07-31T13:58:36;1.03;;;0.90;;
7205;SDS011;3644;53.480;10.004;2023-07-31T14:01:01;0.70;;;0.70;;
7205;SDS011;3644;53.480;10.004;2023-07-31T14:03:28;1.47;;;0.80;;
7205;SDS011;3644;53.480;10.004;2023-07-31T14:05:53;0.73;;;0.73;;
7205;SDS011;3644;53.480;10.004;2023-07-31T14:08:20;0.70;;;0.70;;
7205;SDS011;3644;53.480;10.004;2023-07-31T14:10:46;0.70;;;0.70;;
7205;SDS011;3644;53.480;10.004;2023-07-31T14:13:11;1.17;;;0.70;;
7205;SDS011;3644;53.480;10.004;2023-07-31T14:15:37;0.70;;;0.70;;
7205;SDS011;3644;53.480;10.004;2023-07-31T14:18:02;0.70;;;0.70;;
7205;SDS011;3644;53.480;10.004;2023-07-31T14:20:28;0.80;;;0.80;;
7205;SDS011;3644;53.480;10.004;2023-07-31T14:22:54;1.87;;;1.10;;
7205;SDS011;3644;53.480;10.004;2023-07-31T14:25:20;0.93;;;0.93;;
7205;SDS011;3644;53.480;10.004;2023-07-31T14:27:46;1.33;;;1.00;;
7205;SDS011;3644;53.480;10.004;2023-07-31T14:30:11;4.47;;;1.87;;
7205;SDS011;3644;53.480;10.004;2023-07-31T14:32:37;1.57;;;1.47;;
7205;SDS011;3644;53.480;10.004;2023-07-31T14:35:03;2.20;;;1.20;;
7205;SDS011;3644;53.480;10.004;2023-07-31T14:37:36;1.23;;;1.10;;
7205;SDS011;3644;53.480;10.004;2023-07-31T14:40:05;3.33;;;0.80;;
7205;SDS011;3644;53.480;10.004;2023-07-31T14:42:32;0.90;;;0.90;;
7205;SDS011;3644;53.480;10.004;2023-07-31T14:44:57;1.07;;;0.97;;
7205;SDS011;3644;53.480;10.004;2023-07-31T14:47:22;1.00;;;0.90;;
7205;SDS011;3644;53.480;10.004;2023-07-31T14:49:48;1.20;;;1.10;;
7205;SDS011;3644;53.480;10.004;2023-07-31T14:52:14;0.97;;;0.97;;
7205;SDS011;3644;53.480;10.004;2023-07-31T14:54:39;2.70;;;1.50;;
7205;SDS011;3644;53.480;10.004;2023-07-31T14:57:05;1.93;;;1.00;;
7205;SDS011;3644;53.480;10.004;2023-07-31T14:59:31;1.17;;;1.00;;
7205;SDS011;3644;53.480;10.004;2023-07-31T15:01:56;0.93;;;0.93;;
7205;SDS011;3644;53.480;10.004;2023-07-31T15:04:22;0.93;;;0.93;;
7205;SDS011;3644;53.480;10.004;2023-07-31T15:06:48;4.20;;;1.03;;
7205;SDS011;3644;53.480;10.004;2023-07-31T15:09:14;1.73;;;1.43;;
7205;SDS011;3644;53.480;10.004;2023-07-31T15:11:40;1.20;;;1.20;;
7205;SDS011;3644;53.480;10.004;2023-07-31T15:14:05;1.73;;;1.43;;
7205;SDS011;3644;53.480;10.004;2023-07-31T15:16:31;1.20;;;1.10;;
7205;SDS011;3644;53.480;10.004;2023-07-31T15:18:57;1.40;;;1.30;;